This is the latest recevied weather packets stored in our database for station/object HA8LNU. If no packets are shown the sender has not sent any weather packets the latest 10 day(s).
| Time | Temp. | Humidity | Pressure | Rain* | Wind** | Luminosity | Snow |
|---|---|---|---|---|---|---|---|
| 1778430940 | 22.78° C | 37% | 1012.6 hPa | 0 mm | - | - | - |
| 1778428552 | 23.89° C | 35% | 1012.9 hPa | 0 mm | - | - | - |
| 1778427929 | 23.89° C | 34% | 1012.9 hPa | 0 mm | - | - | - |
| 1778424317 | 26.11° C | 33% | 1013.3 hPa | 0 mm | - | - | - |
| 1778421968 | 26.11° C | 31% | 1013.6 hPa | 0 mm | - | - | - |
| 1778419560 | 27.22° C | 33% | 1014 hPa | 0 mm | - | - | - |
| 1778415345 | 26.11° C | 39% | 1014.9 hPa | 0 mm | - | - | - |
| 1778414743 | 26.11° C | 40% | 1015.1 hPa | 0 mm | - | - | - |
| 1778414141 | 26.11° C | 39% | 1015.2 hPa | 0 mm | - | - | - |
| 1778406374 | 21.11° C | 61% | 1017 hPa | 0 mm | - | - | - |
| 1778403363 | 18.33° C | 65% | 1017.4 hPa | 0 mm | - | - | - |
| 1778399168 | 16.67° C | 70% | 1017.5 hPa | 0 mm | - | - | - |
| 1778397362 | 15.56° C | 71% | 1017.7 hPa | 0 mm | - | - | - |
| 1778395535 | 15° C | 71% | 1017.6 hPa | 0 mm | - | - | - |
| 1778394933 | 14.44° C | 72% | 1017.7 hPa | 0 mm | - | - | - |
| 1778394331 | 14.44° C | 72% | 1017.6 hPa | 0 mm | - | - | - |
| 1778392525 | 13.89° C | 72% | 1017.5 hPa | 0 mm | - | - | - |
| 1778391320 | 13.33° C | 74% | 1017.4 hPa | 0 mm | - | - | - |
| 1778384155 | 9.44° C | 86% | 1017.4 hPa | 0 mm | - | - | - |
| 1778381747 | 9.44° C | 85% | 1017.2 hPa | 0 mm | - | - | - |
| 1778381145 | 10° C | 85% | 1017.2 hPa | 0 mm | - | - | - |
| 1778373920 | 11.67° C | 88% | 1017.1 hPa | 0 mm | - | - | - |
| 1778372715 | 11.67° C | 88% | 1017.3 hPa | 0 mm | - | - | - |
| 1778363142 | 15° C | 83% | 1017.2 hPa | 0.25 mm | - | - | - |
| 1778359529 | 16.67° C | 70% | 1017.7 hPa | 0 mm | - | - | - |
* Rain latest hour (hover to see other rain measurements)
** Current wind speed in m/s (hover to see current wind gust speed)